createdAt,value
2023-05-14T00:00:32.851Z,1506.0
2023-05-14T00:03:33.198Z,1504.8
2023-05-14T00:06:32.805Z,1504.0
2023-05-14T00:09:32.823Z,1500.7
2023-05-14T00:12:32.771Z,1502.3
2023-05-14T00:15:34.297Z,1501.7
2023-05-14T00:18:32.852Z,1510.2
2023-05-14T00:21:32.915Z,1513.3
2023-05-14T00:24:32.800Z,1524.4
2023-05-14T00:27:32.754Z,1524.8
2023-05-14T00:30:32.813Z,1528.1
2023-05-14T00:33:32.855Z,1546.9
2023-05-14T00:36:32.770Z,1548.7
2023-05-14T00:39:32.887Z,1566.5
2023-05-14T00:42:32.801Z,1550.9
2023-05-14T00:45:32.810Z,1564.6
2023-05-14T00:48:32.797Z,1562.8
2023-05-14T00:51:32.796Z,1568.1
2023-05-14T00:54:32.804Z,1578.8
2023-05-14T00:57:32.777Z,1579.6
2023-05-14T01:00:33.034Z,1577.5
2023-05-14T01:03:33.106Z,1566.5
2023-05-14T01:06:32.793Z,1579.7
2023-05-14T01:09:32.762Z,1595.9
2023-05-14T01:12:32.734Z,1630.1
2023-05-14T01:15:32.814Z,1638.4
2023-05-14T01:18:32.851Z,1636.1
2023-05-14T01:21:32.914Z,1618.0
2023-05-14T01:24:32.735Z,1637.1
2023-05-14T01:27:32.755Z,1638.0
2023-05-14T01:30:32.783Z,1648.0
2023-05-14T01:33:32.931Z,1645.4
2023-05-14T01:36:33.777Z,1638.1
2023-05-14T01:39:32.804Z,1651.3
2023-05-14T01:42:32.766Z,1647.9
2023-05-14T01:45:32.773Z,1641.0
2023-05-14T01:48:32.828Z,1638.9
2023-05-14T01:51:32.723Z,1637.9
2023-05-14T01:54:32.766Z,1645.5
2023-05-14T01:57:32.776Z,1668.1
2023-05-14T02:00:32.815Z,1688.6
2023-05-14T02:03:32.826Z,1692.1
2023-05-14T02:06:32.784Z,1715.8
2023-05-14T02:09:32.797Z,1703.5
2023-05-14T02:12:32.771Z,1700.0
2023-05-14T02:15:32.791Z,1731.3
2023-05-14T02:18:32.866Z,1765.0
2023-05-14T02:21:32.771Z,1805.1
2023-05-14T02:24:32.835Z,1812.9
2023-05-14T02:27:32.760Z,1808.6
2023-05-14T02:30:32.922Z,1799.5
2023-05-14T02:33:33.069Z,1802.6
2023-05-14T02:36:33.890Z,1807.0
2023-05-14T02:39:32.800Z,1800.9
2023-05-14T02:42:32.774Z,1807.8
2023-05-14T02:45:32.831Z,1821.6
2023-05-14T02:48:32.823Z,1822.8
2023-05-14T02:51:32.791Z,1832.1
2023-05-14T02:54:32.796Z,1836.2
2023-05-14T02:57:32.770Z,1853.8
2023-05-14T03:00:32.885Z,1850.8
2023-05-14T03:03:32.887Z,1851.6
2023-05-14T03:06:32.811Z,1845.4
2023-05-14T03:09:32.775Z,1843.4
2023-05-14T03:12:32.750Z,1864.7
2023-05-14T03:15:32.799Z,1870.5
2023-05-14T03:18:32.814Z,1888.3
2023-05-14T03:21:32.743Z,1888.5
2023-05-14T03:24:32.783Z,1877.5
2023-05-14T03:27:32.822Z,1881.9
2023-05-14T03:30:32.791Z,1886.9
2023-05-14T03:33:32.803Z,1877.4
2023-05-14T03:36:32.801Z,1871.4
2023-05-14T03:39:32.781Z,1887.3
2023-05-14T03:42:32.779Z,1901.4
2023-05-14T03:45:32.764Z,1891.2
2023-05-14T03:48:33.051Z,1891.1
2023-05-14T03:51:32.786Z,1887.3
2023-05-14T03:54:32.780Z,1886.9
2023-05-14T03:57:32.771Z,1884.3
2023-05-14T04:00:32.873Z,1877.7
2023-05-14T04:03:33.217Z,1882.4
2023-05-14T04:06:32.799Z,1871.4
2023-05-14T04:09:32.790Z,1866.1
2023-05-14T04:12:32.862Z,1875.7
2023-05-14T04:15:32.766Z,1881.7
2023-05-14T04:18:32.893Z,1882.6
2023-05-14T04:21:32.801Z,1887.0
2023-05-14T04:24:32.846Z,1875.2
2023-05-14T04:27:32.800Z,1867.4
2023-05-14T04:30:32.813Z,1835.0
2023-05-14T04:33:32.789Z,1845.8
2023-05-14T04:36:32.745Z,1839.1
2023-05-14T04:39:32.811Z,1826.0
2023-05-14T04:42:32.801Z,1841.2
2023-05-14T04:45:34.223Z,1832.0
2023-05-14T04:48:33.045Z,1831.2
2023-05-14T04:51:32.830Z,1839.9
2023-05-14T04:54:32.965Z,1837.0
2023-05-14T04:57:32.762Z,1840.9
2023-05-14T05:00:32.895Z,1843.4
2023-05-14T05:03:33.222Z,1857.8
2023-05-14T05:06:32.784Z,1852.5
2023-05-14T05:09:34.588Z,1852.8
2023-05-14T05:12:32.822Z,1855.4
2023-05-14T05:15:32.822Z,1844.2
2023-05-14T05:18:32.905Z,1851.8
2023-05-14T05:21:32.806Z,1855.2
2023-05-14T05:24:32.768Z,1863.3
2023-05-14T05:27:32.794Z,1875.6
2023-05-14T05:30:32.778Z,1872.0
2023-05-14T05:33:32.969Z,1867.5
2023-05-14T05:36:32.802Z,1831.1
2023-05-14T05:39:32.769Z,1807.7
2023-05-14T05:42:32.788Z,1787.6
2023-05-14T05:45:32.792Z,1749.2
2023-05-14T05:48:32.838Z,1706.4
2023-05-14T05:51:32.837Z,1684.8
2023-05-14T05:54:32.837Z,1653.3
2023-05-14T05:57:32.770Z,1627.5
2023-05-14T06:00:32.851Z,1613.2
2023-05-14T06:03:32.919Z,1626.9
2023-05-14T06:06:32.842Z,1645.3
2023-05-14T06:09:32.757Z,1658.7
2023-05-14T06:12:32.822Z,1670.8
2023-05-14T06:15:32.794Z,1698.1
2023-05-14T06:18:32.915Z,1699.8
2023-05-14T06:21:32.842Z,1693.4
2023-05-14T06:24:32.814Z,1682.5
2023-05-14T06:27:32.802Z,1685.0
2023-05-14T06:30:32.787Z,1679.3
2023-05-14T06:33:34.348Z,1689.5
2023-05-14T06:36:32.827Z,1675.5
2023-05-14T06:39:32.773Z,1675.0
2023-05-14T06:42:32.836Z,1680.8
2023-05-14T06:45:33.327Z,1669.6
2023-05-14T06:48:33.193Z,1644.0
2023-05-14T06:51:32.810Z,1622.7
2023-05-14T06:54:32.770Z,1606.1
2023-05-14T06:57:32.809Z,1591.0
2023-05-14T07:00:35.318Z,1578.6
2023-05-14T07:03:32.851Z,1578.6
2023-05-14T07:06:32.787Z,1568.5
2023-05-14T07:09:32.813Z,1563.6
2023-05-14T07:12:32.815Z,1554.6
2023-05-14T07:15:32.772Z,1543.6
2023-05-14T07:18:33.028Z,1540.6
2023-05-14T07:21:32.858Z,1533.0
2023-05-14T07:24:32.787Z,1502.7
2023-05-14T07:27:32.792Z,1499.9
2023-05-14T07:30:33.088Z,1485.2
2023-05-14T07:33:32.840Z,1492.4
2023-05-14T07:36:32.825Z,1497.7
2023-05-14T07:39:32.814Z,1500.6
2023-05-14T07:42:42.706Z,1516.1
2023-05-14T07:45:32.864Z,1522.4
2023-05-14T07:48:33.186Z,1514.8
2023-05-14T07:51:32.805Z,1533.4
2023-05-14T07:54:32.797Z,1579.4
2023-05-14T07:57:32.761Z,1556.0
2023-05-14T08:00:32.874Z,1537.8
2023-05-14T08:03:33.133Z,1546.9
2023-05-14T08:06:32.776Z,1545.2
2023-05-14T08:09:32.790Z,1510.9
2023-05-14T08:12:32.804Z,1480.2
2023-05-14T08:15:32.780Z,1486.3
2023-05-14T08:18:32.961Z,1509.6
2023-05-14T08:21:35.423Z,1515.1
2023-05-14T08:24:32.804Z,1517.6
2023-05-14T08:27:32.894Z,1545.1
2023-05-14T08:30:32.834Z,1623.8
2023-05-14T08:33:32.873Z,1624.3
2023-05-14T08:36:32.909Z,1589.3
2023-05-14T08:39:32.790Z,1546.5
2023-05-14T08:42:32.866Z,1538.1
2023-05-14T08:45:32.810Z,1522.5
2023-05-14T08:48:33.205Z,1463.9
2023-05-14T08:51:32.778Z,1419.4
2023-05-14T08:54:32.815Z,1400.7
2023-05-14T08:57:32.789Z,1399.5
2023-05-14T09:00:32.904Z,1384.0
2023-05-14T09:03:33.080Z,1395.5
2023-05-14T09:06:32.844Z,1402.3
2023-05-14T09:09:32.802Z,1389.8
2023-05-14T09:12:32.753Z,1438.0
2023-05-14T09:15:32.902Z,1461.1
2023-05-14T09:18:32.981Z,1447.4
2023-05-14T09:21:33.559Z,1435.2
2023-05-14T09:24:32.773Z,1432.9
2023-05-14T09:27:32.782Z,1421.3
2023-05-14T09:30:32.770Z,1413.7
2023-05-14T09:33:32.877Z,1411.6
2023-05-14T09:36:32.762Z,1454.6
2023-05-14T09:39:32.841Z,1447.5
2023-05-14T09:42:32.786Z,1467.9
2023-05-14T09:45:32.862Z,1459.8
2023-05-14T09:48:33.032Z,1447.4
2023-05-14T09:51:34.102Z,1426.4
2023-05-14T09:54:32.797Z,1411.8
2023-05-14T09:57:32.803Z,1392.3
2023-05-14T10:00:32.917Z,1371.7
2023-05-14T10:03:35.841Z,1365.8
2023-05-14T10:06:32.784Z,1368.3
2023-05-14T10:09:32.787Z,1367.3
2023-05-14T10:12:32.807Z,1329.1
2023-05-14T10:15:32.804Z,1320.0
2023-05-14T10:18:33.110Z,1347.7
2023-05-14T10:21:32.805Z,1292.4
2023-05-14T10:24:32.859Z,1261.8
2023-05-14T10:27:32.809Z,1250.1
2023-05-14T10:30:32.785Z,1249.9
2023-05-14T10:33:33.052Z,1243.4
2023-05-14T10:36:32.763Z,1216.0
2023-05-14T10:39:32.781Z,1212.0
2023-05-14T10:42:32.781Z,1182.7
2023-05-14T10:45:32.736Z,1213.4
2023-05-14T10:48:32.967Z,1222.7
2023-05-14T10:51:32.958Z,1195.4
2023-05-14T10:54:32.776Z,1144.4
2023-05-14T10:57:32.743Z,1150.6
2023-05-14T11:00:32.804Z,1150.2
2023-05-14T11:03:32.905Z,1135.9
2023-05-14T11:06:32.757Z,1123.3
2023-05-14T11:09:32.798Z,1094.5
2023-05-14T11:12:32.837Z,1083.1
2023-05-14T11:15:32.818Z,1046.0
2023-05-14T11:18:32.951Z,1040.4
2023-05-14T11:21:33.033Z,1042.8
2023-05-14T11:24:32.829Z,999.5
2023-05-14T11:27:32.828Z,1010.0
2023-05-14T11:30:32.891Z,1007.9
2023-05-14T11:33:34.530Z,1028.5
2023-05-14T11:36:32.810Z,1032.5
2023-05-14T11:39:32.821Z,1049.4
2023-05-14T11:42:32.835Z,1011.6
2023-05-14T11:45:32.843Z,1010.8
2023-05-14T11:48:32.845Z,1020.4
2023-05-14T11:51:32.851Z,970.8
2023-05-14T11:54:32.818Z,914.1
2023-05-14T11:57:32.840Z,912.1
2023-05-14T12:00:33.050Z,902.8
2023-05-14T12:03:33.275Z,937.3
2023-05-14T12:06:32.767Z,918.1
2023-05-14T12:09:32.796Z,912.4
2023-05-14T12:12:32.778Z,904.2
2023-05-14T12:15:32.788Z,881.9
2023-05-14T12:18:41.185Z,868.5
2023-05-14T12:21:32.788Z,858.2
2023-05-14T12:24:32.796Z,858.0
2023-05-14T12:27:32.840Z,903.2
2023-05-14T12:30:42.689Z,863.2
2023-05-14T12:33:32.887Z,891.0
2023-05-14T12:36:42.137Z,886.7
2023-05-14T12:39:32.732Z,920.7
2023-05-14T12:42:32.771Z,905.5
2023-05-14T12:45:32.719Z,891.3
2023-05-14T12:48:32.818Z,866.5
2023-05-14T12:51:32.777Z,828.9
2023-05-14T12:54:32.834Z,819.8
2023-05-14T12:57:32.767Z,864.4
2023-05-14T13:00:32.807Z,824.3
2023-05-14T13:03:32.993Z,872.2
2023-05-14T13:06:32.795Z,853.1
2023-05-14T13:09:32.818Z,846.8
2023-05-14T13:12:32.812Z,825.2
2023-05-14T13:15:32.964Z,834.4
2023-05-14T13:18:32.936Z,852.7
2023-05-14T13:21:32.849Z,826.2
2023-05-14T13:24:32.786Z,832.4
2023-05-14T13:27:32.788Z,835.0
2023-05-14T13:30:32.798Z,788.2
2023-05-14T13:33:32.824Z,729.7
2023-05-14T13:36:32.761Z,697.9
2023-05-14T13:39:33.427Z,704.1
2023-05-14T13:42:32.772Z,684.6
2023-05-14T13:45:32.830Z,673.1
2023-05-14T13:48:33.007Z,664.7
2023-05-14T13:51:32.858Z,657.6
2023-05-14T13:54:33.009Z,654.6
2023-05-14T13:57:32.811Z,655.7
2023-05-14T14:00:32.838Z,660.7
2023-05-14T14:03:32.823Z,659.7
2023-05-14T14:09:32.865Z,662.4
2023-05-14T14:12:32.942Z,660.5
2023-05-14T14:15:32.777Z,654.0
2023-05-14T14:18:32.869Z,649.7
2023-05-14T14:21:32.814Z,627.5
2023-05-14T14:24:32.907Z,638.5
2023-05-14T14:27:32.800Z,644.2
2023-05-14T14:30:32.860Z,625.8
2023-05-14T14:33:32.837Z,618.9
2023-05-14T14:36:32.769Z,617.3
2023-05-14T14:39:32.756Z,606.5
2023-05-14T14:42:32.792Z,624.0
2023-05-14T14:45:32.864Z,621.1
2023-05-14T14:48:32.823Z,645.7
2023-05-14T14:51:32.845Z,632.6
2023-05-14T14:54:32.970Z,622.0
2023-05-14T14:57:32.801Z,823.2
2023-05-14T15:00:34.596Z,1004.7
2023-05-14T15:03:33.064Z,1565.5
2023-05-14T15:06:32.851Z,1649.9
2023-05-14T15:09:32.812Z,1674.7
2023-05-14T15:12:32.791Z,1778.9
2023-05-14T15:15:32.757Z,1823.3
2023-05-14T15:18:32.859Z,1903.3
2023-05-14T15:21:32.758Z,1916.9
2023-05-14T15:24:32.777Z,1898.2
2023-05-14T15:27:32.813Z,1828.0
2023-05-14T15:30:32.795Z,1837.0
2023-05-14T15:33:32.888Z,1913.2
2023-05-14T15:36:32.800Z,1965.6
2023-05-14T15:39:32.757Z,1888.9
2023-05-14T15:42:32.774Z,1832.2
2023-05-14T15:45:32.900Z,1934.1
2023-05-14T15:48:33.057Z,1989.0
2023-05-14T15:51:32.803Z,1967.1
2023-05-14T15:54:32.772Z,2054.3
2023-05-14T15:57:35.896Z,2085.9
2023-05-14T16:00:32.845Z,2119.0
2023-05-14T16:03:33.110Z,2079.8
2023-05-14T16:06:32.804Z,2044.3
2023-05-14T16:09:32.808Z,2075.0
2023-05-14T16:12:32.822Z,2044.1
2023-05-14T16:15:32.779Z,2029.0
2023-05-14T16:18:32.891Z,2063.5
2023-05-14T16:21:32.764Z,2080.4
2023-05-14T16:24:32.756Z,2030.1
2023-05-14T16:27:32.773Z,1976.9
2023-05-14T16:30:32.742Z,2097.9
2023-05-14T16:33:32.855Z,1985.8
2023-05-14T16:36:32.788Z,1852.1
2023-05-14T16:39:35.791Z,1794.7
2023-05-14T16:42:32.778Z,1807.0
2023-05-14T16:45:32.925Z,1778.9
2023-05-14T16:48:32.791Z,1862.9
2023-05-14T16:51:32.775Z,1897.2
2023-05-14T16:54:32.811Z,1932.4
2023-05-14T16:57:32.756Z,2102.4
2023-05-14T17:00:32.950Z,2128.7
2023-05-14T17:03:33.717Z,2106.5
2023-05-14T17:06:32.775Z,2046.4
2023-05-14T17:09:32.766Z,2140.3
2023-05-14T17:12:32.842Z,2119.9
2023-05-14T17:15:34.284Z,2105.5
2023-05-14T17:18:33.027Z,2100.2
2023-05-14T17:21:32.773Z,2114.9
2023-05-14T17:24:32.843Z,2141.9
2023-05-14T17:27:33.058Z,2117.9
2023-05-14T17:30:32.794Z,2104.6
2023-05-14T17:33:33.018Z,2081.8
2023-05-14T17:36:32.770Z,2049.7
2023-05-14T17:39:32.737Z,2064.8
2023-05-14T17:42:32.767Z,2010.9
2023-05-14T17:45:39.698Z,2042.2
2023-05-14T17:48:32.811Z,2074.2
2023-05-14T17:51:32.812Z,2032.8
2023-05-14T17:54:32.831Z,2012.8
2023-05-14T17:57:32.819Z,2016.6
2023-05-14T18:00:32.899Z,1996.4
2023-05-14T18:03:33.098Z,2035.6
2023-05-14T18:06:32.827Z,2015.2
2023-05-14T18:09:32.788Z,2029.4
2023-05-14T18:12:32.776Z,2018.4
2023-05-14T18:15:32.820Z,2018.2
2023-05-14T18:18:32.898Z,2057.6
2023-05-14T18:21:32.856Z,2097.9
2023-05-14T18:24:32.837Z,2089.4
2023-05-14T18:27:32.792Z,2032.1
2023-05-14T18:30:32.977Z,2028.3
2023-05-14T18:33:32.800Z,2005.0
2023-05-14T18:36:32.930Z,1962.8
2023-05-14T18:39:32.796Z,1994.5
2023-05-14T18:42:32.812Z,1964.4
2023-05-14T18:45:33.063Z,1950.2
2023-05-14T18:48:32.929Z,1957.8
2023-05-14T18:51:32.824Z,1963.9
2023-05-14T18:54:32.806Z,1988.2
2023-05-14T18:57:32.816Z,2032.8
2023-05-14T19:03:33.206Z,1067.4
2023-05-14T19:06:32.804Z,1995.8
2023-05-14T19:09:32.791Z,1928.0
2023-05-14T19:12:32.777Z,1879.0
2023-05-14T19:15:32.815Z,1949.7
2023-05-14T19:18:32.875Z,834.8
2023-05-14T19:21:32.823Z,1709.3
2023-05-14T19:24:32.801Z,1996.9
2023-05-14T19:27:32.822Z,1956.8
2023-05-14T19:30:32.793Z,1947.1
2023-05-14T19:33:32.942Z,1944.5
2023-05-14T19:36:32.840Z,1935.1
2023-05-14T19:39:32.792Z,1914.7
2023-05-14T19:42:32.797Z,1917.0
2023-05-14T19:45:32.816Z,1919.0
2023-05-14T19:48:32.804Z,2016.0
2023-05-14T19:51:32.751Z,2082.2
2023-05-14T19:54:32.745Z,2148.8
2023-05-14T19:57:32.816Z,2218.1
2023-05-14T20:00:32.904Z,2267.6
2023-05-14T20:03:32.963Z,2290.8
2023-05-14T20:06:32.801Z,2320.3
2023-05-14T20:09:32.778Z,2355.7
2023-05-14T20:12:32.821Z,2382.8
2023-05-14T20:15:32.841Z,2420.5
2023-05-14T20:18:32.938Z,2455.3
2023-05-14T20:21:32.802Z,2483.1
2023-05-14T20:24:32.778Z,2499.7
2023-05-14T20:27:32.765Z,2507.2
2023-05-14T20:30:32.804Z,2938.7
2023-05-14T20:33:32.968Z,2808.9
2023-05-14T20:36:32.808Z,2724.2
2023-05-14T20:39:32.770Z,2695.0
2023-05-14T20:42:32.767Z,2691.2
2023-05-14T20:45:32.815Z,2687.0
2023-05-14T20:48:32.896Z,2677.9
2023-05-14T20:51:32.773Z,2677.9
2023-05-14T20:54:32.777Z,2676.6
2023-05-14T20:57:32.769Z,2668.0
2023-05-14T21:00:32.814Z,2670.4
2023-05-14T21:03:33.406Z,2664.4
2023-05-14T21:06:32.809Z,2638.9
2023-05-14T21:09:32.864Z,2632.7
2023-05-14T21:12:32.809Z,2643.8
2023-05-14T21:15:32.829Z,2630.9
2023-05-14T21:18:32.948Z,2617.4
2023-05-14T21:21:32.790Z,2592.4
2023-05-14T21:24:32.836Z,2569.6
2023-05-14T21:27:32.788Z,2551.0
2023-05-14T21:30:32.770Z,2538.4
2023-05-14T21:33:32.800Z,2536.9
2023-05-14T21:36:32.798Z,2528.3
2023-05-14T21:39:32.774Z,2526.8
2023-05-14T21:42:32.771Z,2527.6
2023-05-14T21:45:32.817Z,2529.3
2023-05-14T21:48:33.059Z,2523.9
2023-05-14T21:51:32.783Z,2517.1
2023-05-14T21:54:32.776Z,2519.4
2023-05-14T21:57:34.525Z,2518.1
2023-05-14T22:00:32.768Z,2518.8
2023-05-14T22:03:33.021Z,2519.9
2023-05-14T22:06:32.809Z,2512.1
2023-05-14T22:09:32.764Z,2511.9
2023-05-14T22:12:32.730Z,2517.2
2023-05-14T22:15:32.752Z,2522.6
2023-05-14T22:18:32.770Z,2516.9
2023-05-14T22:21:32.765Z,2514.4
2023-05-14T22:24:32.799Z,2515.3
2023-05-14T22:27:32.813Z,2507.9
2023-05-14T22:30:32.786Z,2498.8
2023-05-14T22:33:32.895Z,2491.2
2023-05-14T22:36:32.757Z,2484.8
2023-05-14T22:39:32.752Z,2482.3
2023-05-14T22:42:32.795Z,2472.7
2023-05-14T22:45:32.752Z,2469.9
2023-05-14T22:48:34.522Z,2465.9
2023-05-14T22:51:32.717Z,2466.5
2023-05-14T22:54:33.718Z,2462.9
2023-05-14T22:57:32.754Z,2455.4
2023-05-14T23:00:32.830Z,2446.4
2023-05-14T23:03:32.866Z,2448.1
2023-05-14T23:06:32.744Z,2459.0
2023-05-14T23:09:32.766Z,2464.9
2023-05-14T23:12:32.825Z,2466.5
2023-05-14T23:15:32.773Z,2469.9
2023-05-14T23:18:33.052Z,2476.2
2023-05-14T23:21:32.785Z,2482.9
2023-05-14T23:24:32.752Z,2485.1
2023-05-14T23:27:32.754Z,2490.4
2023-05-14T23:30:32.797Z,2492.7
2023-05-14T23:33:32.863Z,2496.4
2023-05-14T23:36:32.784Z,2503.8
2023-05-14T23:39:32.753Z,2504.0
2023-05-14T23:42:32.795Z,2499.4
2023-05-14T23:45:32.797Z,2499.4
2023-05-14T23:48:33.011Z,2500.7
2023-05-14T23:51:32.761Z,2499.8
2023-05-14T23:54:32.758Z,2500.8
2023-05-14T23:57:32.758Z,2503.5
